sensor_id;sensor_type;location;lat;lon;timestamp;P1;durP1;ratioP1;P2;durP2;ratioP2
46729;SDS011;32476;50.002;11.854;2022-07-29T00:01:01;11.10;;;1.80;;
46729;SDS011;32476;50.002;11.854;2022-07-29T00:03:27;6.57;;;1.80;;
46729;SDS011;32476;50.002;11.854;2022-07-29T00:05:54;8.00;;;1.83;;
46729;SDS011;32476;50.002;11.854;2022-07-29T00:08:21;5.75;;;1.83;;
46729;SDS011;32476;50.002;11.854;2022-07-29T00:10:47;6.53;;;1.55;;
46729;SDS011;32476;50.002;11.854;2022-07-29T00:13:13;4.90;;;1.77;;
46729;SDS011;32476;50.002;11.854;2022-07-29T00:15:41;7.28;;;2.10;;
46729;SDS011;32476;50.002;11.854;2022-07-29T00:18:07;4.35;;;1.63;;
46729;SDS011;32476;50.002;11.854;2022-07-29T00:20:33;9.00;;;1.92;;
46729;SDS011;32476;50.002;11.854;2022-07-29T00:23:00;6.73;;;1.67;;
46729;SDS011;32476;50.002;11.854;2022-07-29T00:25:26;4.03;;;1.52;;
46729;SDS011;32476;50.002;11.854;2022-07-29T00:27:52;9.30;;;2.17;;
46729;SDS011;32476;50.002;11.854;2022-07-29T00:30:20;4.30;;;1.60;;
46729;SDS011;32476;50.002;11.854;2022-07-29T00:32:46;4.20;;;1.50;;
46729;SDS011;32476;50.002;11.854;2022-07-29T00:35:11;4.28;;;1.70;;
46729;SDS011;32476;50.002;11.854;2022-07-29T00:37:58;4.30;;;1.50;;
46729;SDS011;32476;50.002;11.854;2022-07-29T00:40:24;5.20;;;1.73;;
46729;SDS011;32476;50.002;11.854;2022-07-29T00:42:50;1.97;;;1.50;;
46729;SDS011;32476;50.002;11.854;2022-07-29T00:45:19;6.67;;;1.63;;
46729;SDS011;32476;50.002;11.854;2022-07-29T00:47:45;2.90;;;1.50;;
46729;SDS011;32476;50.002;11.854;2022-07-29T00:50:12;4.00;;;1.80;;
46729;SDS011;32476;50.002;11.854;2022-07-29T00:52:41;6.70;;;1.60;;
46729;SDS011;32476;50.002;11.854;2022-07-29T00:55:08;6.53;;;1.67;;
46729;SDS011;32476;50.002;11.854;2022-07-29T00:57:37;5.53;;;1.75;;
46729;SDS011;32476;50.002;11.854;2022-07-29T01:00:08;2.50;;;1.90;;
46729;SDS011;32476;50.002;11.854;2022-07-29T01:02:38;4.50;;;1.70;;
46729;SDS011;32476;50.002;11.854;2022-07-29T01:05:04;5.83;;;1.40;;
46729;SDS011;32476;50.002;11.854;2022-07-29T01:07:36;5.73;;;1.90;;
46729;SDS011;32476;50.002;11.854;2022-07-29T01:10:04;4.38;;;1.42;;
46729;SDS011;32476;50.002;11.854;2022-07-29T01:12:35;5.30;;;1.60;;
46729;SDS011;32476;50.002;11.854;2022-07-29T01:15:03;7.72;;;1.50;;
46729;SDS011;32476;50.002;11.854;2022-07-29T01:23:51;4.30;;;1.90;;
46729;SDS011;32476;50.002;11.854;2022-07-29T01:29:38;11.97;;;2.00;;
46729;SDS011;32476;50.002;11.854;2022-07-29T01:32:25;10.95;;;1.77;;
46729;SDS011;32476;50.002;11.854;2022-07-29T01:34:59;9.40;;;1.70;;
46729;SDS011;32476;50.002;11.854;2022-07-29T01:40:54;7.90;;;1.73;;
46729;SDS011;32476;50.002;11.854;2022-07-29T01:46:36;5.43;;;1.75;;
46729;SDS011;32476;50.002;11.854;2022-07-29T01:51:41;4.32;;;1.75;;
46729;SDS011;32476;50.002;11.854;2022-07-29T01:54:37;4.95;;;1.55;;
46729;SDS011;32476;50.002;11.854;2022-07-29T01:57:14;5.13;;;1.55;;
46729;SDS011;32476;50.002;11.854;2022-07-29T01:59:47;4.07;;;1.58;;
46729;SDS011;32476;50.002;11.854;2022-07-29T02:02:15;6.40;;;1.70;;
46729;SDS011;32476;50.002;11.854;2022-07-29T02:04:42;3.20;;;1.70;;
46729;SDS011;32476;50.002;11.854;2022-07-29T02:07:19;3.47;;;1.33;;
46729;SDS011;32476;50.002;11.854;2022-07-29T02:09:47;4.40;;;1.53;;
46729;SDS011;32476;50.002;11.854;2022-07-29T02:12:18;4.72;;;1.77;;
46729;SDS011;32476;50.002;11.854;2022-07-29T02:14:45;1.90;;;1.20;;
46729;SDS011;32476;50.002;11.854;2022-07-29T02:17:23;5.80;;;1.73;;
46729;SDS011;32476;50.002;11.854;2022-07-29T02:20:00;2.77;;;1.40;;
46729;SDS011;32476;50.002;11.854;2022-07-29T02:22:31;4.77;;;1.87;;
46729;SDS011;32476;50.002;11.854;2022-07-29T02:25:00;5.97;;;1.53;;
46729;SDS011;32476;50.002;11.854;2022-07-29T02:27:27;3.30;;;1.80;;
46729;SDS011;32476;50.002;11.854;2022-07-29T02:29:55;4.20;;;1.70;;
46729;SDS011;32476;50.002;11.854;2022-07-29T02:32:26;8.90;;;2.33;;
46729;SDS011;32476;50.002;11.854;2022-07-29T02:34:53;6.97;;;1.93;;
46729;SDS011;32476;50.002;11.854;2022-07-29T02:37:22;6.97;;;1.63;;
46729;SDS011;32476;50.002;11.854;2022-07-29T02:39:50;6.40;;;1.63;;
46729;SDS011;32476;50.002;11.854;2022-07-29T02:42:19;6.63;;;1.77;;
46729;SDS011;32476;50.002;11.854;2022-07-29T02:44:49;4.43;;;1.67;;
46729;SDS011;32476;50.002;11.854;2022-07-29T02:47:18;7.13;;;2.13;;
46729;SDS011;32476;50.002;11.854;2022-07-29T02:50:11;11.53;;;1.80;;
46729;SDS011;32476;50.002;11.854;2022-07-29T02:52:41;3.43;;;1.43;;
46729;SDS011;32476;50.002;11.854;2022-07-29T02:58:03;5.50;;;1.50;;
46729;SDS011;32476;50.002;11.854;2022-07-29T03:00:40;6.53;;;1.77;;
46729;SDS011;32476;50.002;11.854;2022-07-29T03:03:08;4.13;;;1.60;;
46729;SDS011;32476;50.002;11.854;2022-07-29T03:05:42;3.20;;;1.47;;
46729;SDS011;32476;50.002;11.854;2022-07-29T03:08:09;5.47;;;1.70;;
46729;SDS011;32476;50.002;11.854;2022-07-29T03:10:37;7.90;;;1.57;;
46729;SDS011;32476;50.002;11.854;2022-07-29T03:13:09;5.73;;;1.60;;
46729;SDS011;32476;50.002;11.854;2022-07-29T03:15:35;4.47;;;1.87;;
46729;SDS011;32476;50.002;11.854;2022-07-29T03:18:02;6.03;;;1.70;;
46729;SDS011;32476;50.002;11.854;2022-07-29T03:20:30;6.07;;;1.90;;
46729;SDS011;32476;50.002;11.854;2022-07-29T03:22:56;4.73;;;1.63;;
46729;SDS011;32476;50.002;11.854;2022-07-29T03:25:22;6.10;;;1.57;;
46729;SDS011;32476;50.002;11.854;2022-07-29T03:27:49;2.30;;;1.43;;
46729;SDS011;32476;50.002;11.854;2022-07-29T03:30:15;13.87;;;2.33;;
46729;SDS011;32476;50.002;11.854;2022-07-29T03:32:41;7.17;;;1.80;;
46729;SDS011;32476;50.002;11.854;2022-07-29T03:35:09;5.43;;;1.90;;
46729;SDS011;32476;50.002;11.854;2022-07-29T03:37:35;6.87;;;2.60;;
46729;SDS011;32476;50.002;11.854;2022-07-29T03:40:03;3.47;;;1.70;;
46729;SDS011;32476;50.002;11.854;2022-07-29T03:42:35;7.70;;;2.07;;
46729;SDS011;32476;50.002;11.854;2022-07-29T03:45:06;5.40;;;1.80;;
46729;SDS011;32476;50.002;11.854;2022-07-29T03:47:37;4.87;;;1.90;;
46729;SDS011;32476;50.002;11.854;2022-07-29T03:50:08;10.13;;;1.90;;
46729;SDS011;32476;50.002;11.854;2022-07-29T03:52:39;4.63;;;1.93;;
46729;SDS011;32476;50.002;11.854;2022-07-29T03:55:06;5.07;;;1.87;;
46729;SDS011;32476;50.002;11.854;2022-07-29T03:57:34;10.10;;;2.00;;
46729;SDS011;32476;50.002;11.854;2022-07-29T04:00:03;6.33;;;1.80;;
46729;SDS011;32476;50.002;11.854;2022-07-29T04:02:31;5.90;;;2.00;;
46729;SDS011;32476;50.002;11.854;2022-07-29T04:04:57;4.67;;;1.70;;
46729;SDS011;32476;50.002;11.854;2022-07-29T04:07:25;4.40;;;2.07;;
46729;SDS011;32476;50.002;11.854;2022-07-29T04:09:51;8.33;;;2.20;;
46729;SDS011;32476;50.002;11.854;2022-07-29T04:12:17;7.23;;;2.10;;
46729;SDS011;32476;50.002;11.854;2022-07-29T04:14:44;6.27;;;2.40;;
46729;SDS011;32476;50.002;11.854;2022-07-29T04:17:10;6.63;;;2.10;;
46729;SDS011;32476;50.002;11.854;2022-07-29T04:19:36;14.77;;;2.20;;
46729;SDS011;32476;50.002;11.854;2022-07-29T04:22:04;4.60;;;2.33;;
46729;SDS011;32476;50.002;11.854;2022-07-29T04:24:30;7.50;;;2.00;;
46729;SDS011;32476;50.002;11.854;2022-07-29T04:26:56;5.90;;;2.20;;
46729;SDS011;32476;50.002;11.854;2022-07-29T04:29:23;11.13;;;2.33;;
46729;SDS011;32476;50.002;11.854;2022-07-29T04:31:49;4.97;;;2.00;;
46729;SDS011;32476;50.002;11.854;2022-07-29T04:34:15;7.83;;;2.27;;
46729;SDS011;32476;50.002;11.854;2022-07-29T04:36:43;7.40;;;2.80;;
46729;SDS011;32476;50.002;11.854;2022-07-29T04:39:08;6.50;;;4.67;;
46729;SDS011;32476;50.002;11.854;2022-07-29T04:41:35;16.97;;;12.77;;
46729;SDS011;32476;50.002;11.854;2022-07-29T04:44:03;7.40;;;4.60;;
46729;SDS011;32476;50.002;11.854;2022-07-29T04:46:30;8.10;;;4.60;;
46729;SDS011;32476;50.002;11.854;2022-07-29T04:48:57;11.73;;;4.03;;
46729;SDS011;32476;50.002;11.854;2022-07-29T04:51:24;8.83;;;3.10;;
46729;SDS011;32476;50.002;11.854;2022-07-29T04:53:50;10.40;;;2.27;;
46729;SDS011;32476;50.002;11.854;2022-07-29T04:56:16;6.30;;;2.30;;
46729;SDS011;32476;50.002;11.854;2022-07-29T04:58:43;6.00;;;2.00;;
46729;SDS011;32476;50.002;11.854;2022-07-29T05:01:09;8.37;;;1.83;;
46729;SDS011;32476;50.002;11.854;2022-07-29T05:03:35;9.30;;;2.27;;
46729;SDS011;32476;50.002;11.854;2022-07-29T05:06:03;5.13;;;2.00;;
46729;SDS011;32476;50.002;11.854;2022-07-29T05:08:28;9.13;;;2.20;;
46729;SDS011;32476;50.002;11.854;2022-07-29T05:10:54;6.50;;;2.53;;
46729;SDS011;32476;50.002;11.854;2022-07-29T05:13:22;4.00;;;2.30;;
46729;SDS011;32476;50.002;11.854;2022-07-29T05:15:48;8.10;;;2.40;;
46729;SDS011;32476;50.002;11.854;2022-07-29T05:18:14;9.88;;;2.40;;
46729;SDS011;32476;50.002;11.854;2022-07-29T05:20:42;10.97;;;2.30;;
46729;SDS011;32476;50.002;11.854;2022-07-29T05:23:08;6.32;;;2.33;;
46729;SDS011;32476;50.002;11.854;2022-07-29T05:25:34;8.55;;;2.10;;
46729;SDS011;32476;50.002;11.854;2022-07-29T05:28:01;6.55;;;2.08;;
46729;SDS011;32476;50.002;11.854;2022-07-29T05:30:28;8.07;;;2.08;;
46729;SDS011;32476;50.002;11.854;2022-07-29T05:32:54;13.60;;;2.20;;
46729;SDS011;32476;50.002;11.854;2022-07-29T05:35:21;11.03;;;2.23;;
46729;SDS011;32476;50.002;11.854;2022-07-29T05:37:47;3.40;;;1.65;;
46729;SDS011;32476;50.002;11.854;2022-07-29T05:40:13;9.63;;;1.88;;
46729;SDS011;32476;50.002;11.854;2022-07-29T05:42:41;4.43;;;1.95;;
46729;SDS011;32476;50.002;11.854;2022-07-29T05:45:07;5.30;;;2.05;;
46729;SDS011;32476;50.002;11.854;2022-07-29T05:47:33;15.10;;;2.97;;
46729;SDS011;32476;50.002;11.854;2022-07-29T05:50:00;8.60;;;2.63;;
46729;SDS011;32476;50.002;11.854;2022-07-29T05:52:26;6.85;;;2.20;;
46729;SDS011;32476;50.002;11.854;2022-07-29T05:54:52;6.60;;;2.38;;
46729;SDS011;32476;50.002;11.854;2022-07-29T05:57:23;8.32;;;2.33;;
46729;SDS011;32476;50.002;11.854;2022-07-29T05:59:49;18.23;;;3.17;;
46729;SDS011;32476;50.002;11.854;2022-07-29T06:02:16;8.75;;;2.58;;
46729;SDS011;32476;50.002;11.854;2022-07-29T06:04:44;6.43;;;2.47;;
46729;SDS011;32476;50.002;11.854;2022-07-29T06:07:11;10.50;;;3.83;;
46729;SDS011;32476;50.002;11.854;2022-07-29T06:09:36;11.02;;;3.75;;
46729;SDS011;32476;50.002;11.854;2022-07-29T06:12:04;7.13;;;2.85;;
46729;SDS011;32476;50.002;11.854;2022-07-29T06:14:30;6.55;;;2.53;;
46729;SDS011;32476;50.002;11.854;2022-07-29T06:16:57;11.38;;;2.78;;
46729;SDS011;32476;50.002;11.854;2022-07-29T06:19:24;6.13;;;2.47;;
46729;SDS011;32476;50.002;11.854;2022-07-29T06:21:50;5.72;;;2.38;;
46729;SDS011;32476;50.002;11.854;2022-07-29T06:24:16;4.72;;;2.10;;
46729;SDS011;32476;50.002;11.854;2022-07-29T06:26:44;7.00;;;2.20;;
46729;SDS011;32476;50.002;11.854;2022-07-29T06:29:10;5.00;;;2.10;;
46729;SDS011;32476;50.002;11.854;2022-07-29T06:31:36;7.57;;;2.40;;
46729;SDS011;32476;50.002;11.854;2022-07-29T06:34:04;5.47;;;2.60;;
46729;SDS011;32476;50.002;11.854;2022-07-29T06:36:30;6.00;;;2.22;;
46729;SDS011;32476;50.002;11.854;2022-07-29T06:38:58;8.43;;;2.40;;
46729;SDS011;32476;50.002;11.854;2022-07-29T06:41:26;6.95;;;2.00;;
46729;SDS011;32476;50.002;11.854;2022-07-29T06:43:52;11.05;;;2.65;;
46729;SDS011;32476;50.002;11.854;2022-07-29T06:46:18;10.52;;;2.55;;
46729;SDS011;32476;50.002;11.854;2022-07-29T06:48:46;5.30;;;1.92;;
46729;SDS011;32476;50.002;11.854;2022-07-29T06:51:13;7.32;;;2.83;;
46729;SDS011;32476;50.002;11.854;2022-07-29T06:53:39;5.55;;;2.55;;
46729;SDS011;32476;50.002;11.854;2022-07-29T06:56:07;10.98;;;2.50;;
46729;SDS011;32476;50.002;11.854;2022-07-29T06:58:37;8.10;;;2.58;;
46729;SDS011;32476;50.002;11.854;2022-07-29T07:01:04;8.38;;;2.22;;
46729;SDS011;32476;50.002;11.854;2022-07-29T07:03:33;7.35;;;2.88;;
46729;SDS011;32476;50.002;11.854;2022-07-29T07:05:59;11.07;;;2.67;;
46729;SDS011;32476;50.002;11.854;2022-07-29T07:08:25;6.68;;;2.63;;
46729;SDS011;32476;50.002;11.854;2022-07-29T07:10:52;5.70;;;2.47;;
46729;SDS011;32476;50.002;11.854;2022-07-29T07:13:18;6.05;;;2.50;;
46729;SDS011;32476;50.002;11.854;2022-07-29T07:15:45;6.70;;;2.53;;
46729;SDS011;32476;50.002;11.854;2022-07-29T07:18:15;5.10;;;2.47;;
46729;SDS011;32476;50.002;11.854;2022-07-29T07:20:41;5.63;;;2.60;;
46729;SDS011;32476;50.002;11.854;2022-07-29T07:23:07;9.10;;;3.25;;
46729;SDS011;32476;50.002;11.854;2022-07-29T07:25:35;11.77;;;2.83;;
46729;SDS011;32476;50.002;11.854;2022-07-29T07:28:01;11.75;;;2.90;;
46729;SDS011;32476;50.002;11.854;2022-07-29T07:30:28;7.55;;;2.90;;
46729;SDS011;32476;50.002;11.854;2022-07-29T07:32:56;9.50;;;2.90;;
46729;SDS011;32476;50.002;11.854;2022-07-29T07:35:21;13.07;;;2.92;;
46729;SDS011;32476;50.002;11.854;2022-07-29T07:37:48;5.15;;;2.58;;
46729;SDS011;32476;50.002;11.854;2022-07-29T07:40:15;6.68;;;2.70;;
46729;SDS011;32476;50.002;11.854;2022-07-29T07:42:41;17.23;;;3.15;;
46729;SDS011;32476;50.002;11.854;2022-07-29T07:45:08;6.82;;;3.33;;
46729;SDS011;32476;50.002;11.854;2022-07-29T07:47:36;11.35;;;3.00;;
46729;SDS011;32476;50.002;11.854;2022-07-29T07:50:04;8.00;;;3.10;;
46729;SDS011;32476;50.002;11.854;2022-07-29T07:52:33;10.55;;;3.17;;
46729;SDS011;32476;50.002;11.854;2022-07-29T07:55:00;10.30;;;3.28;;
46729;SDS011;32476;50.002;11.854;2022-07-29T07:57:27;4.93;;;2.78;;
46729;SDS011;32476;50.002;11.854;2022-07-29T07:59:52;10.93;;;2.85;;
46729;SDS011;32476;50.002;11.854;2022-07-29T08:02:20;7.45;;;3.05;;
46729;SDS011;32476;50.002;11.854;2022-07-29T08:04:46;13.32;;;3.20;;
46729;SDS011;32476;50.002;11.854;2022-07-29T08:07:12;9.70;;;3.05;;
46729;SDS011;32476;50.002;11.854;2022-07-29T08:09:41;18.73;;;3.53;;
46729;SDS011;32476;50.002;11.854;2022-07-29T08:12:07;13.60;;;3.38;;
46729;SDS011;32476;50.002;11.854;2022-07-29T08:14:34;12.35;;;3.30;;
46729;SDS011;32476;50.002;11.854;2022-07-29T08:17:01;5.57;;;3.10;;
46729;SDS011;32476;50.002;11.854;2022-07-29T08:19:27;8.57;;;2.97;;
46729;SDS011;32476;50.002;11.854;2022-07-29T08:21:53;9.90;;;3.50;;
46729;SDS011;32476;50.002;11.854;2022-07-29T08:24:21;7.18;;;2.92;;
46729;SDS011;32476;50.002;11.854;2022-07-29T08:27:06;7.15;;;3.00;;
46729;SDS011;32476;50.002;11.854;2022-07-29T08:29:33;9.20;;;3.15;;
46729;SDS011;32476;50.002;11.854;2022-07-29T08:31:59;7.00;;;2.85;;
46729;SDS011;32476;50.002;11.854;2022-07-29T08:34:25;9.40;;;3.00;;
46729;SDS011;32476;50.002;11.854;2022-07-29T08:36:53;8.95;;;2.80;;
46729;SDS011;32476;50.002;11.854;2022-07-29T08:39:19;5.22;;;2.60;;
46729;SDS011;32476;50.002;11.854;2022-07-29T08:41:45;6.15;;;2.83;;
46729;SDS011;32476;50.002;11.854;2022-07-29T08:44:13;8.10;;;3.00;;
46729;SDS011;32476;50.002;11.854;2022-07-29T08:46:41;6.88;;;2.72;;
46729;SDS011;32476;50.002;11.854;2022-07-29T08:49:08;8.07;;;2.90;;
46729;SDS011;32476;50.002;11.854;2022-07-29T08:51:36;11.77;;;3.28;;
46729;SDS011;32476;50.002;11.854;2022-07-29T08:54:05;10.65;;;3.03;;
46729;SDS011;32476;50.002;11.854;2022-07-29T08:56:31;6.28;;;3.13;;
46729;SDS011;32476;50.002;11.854;2022-07-29T08:59:02;5.95;;;2.88;;
46729;SDS011;32476;50.002;11.854;2022-07-29T09:01:30;4.45;;;2.60;;
46729;SDS011;32476;50.002;11.854;2022-07-29T09:04:01;3.55;;;2.80;;
46729;SDS011;32476;50.002;11.854;2022-07-29T09:06:30;5.28;;;2.80;;
46729;SDS011;32476;50.002;11.854;2022-07-29T09:09:01;5.78;;;3.10;;
46729;SDS011;32476;50.002;11.854;2022-07-29T09:11:29;5.35;;;2.70;;
46729;SDS011;32476;50.002;11.854;2022-07-29T09:13:57;5.22;;;3.13;;
46729;SDS011;32476;50.002;11.854;2022-07-29T09:16:25;7.20;;;3.00;;
46729;SDS011;32476;50.002;11.854;2022-07-29T09:18:51;13.38;;;3.22;;
46729;SDS011;32476;50.002;11.854;2022-07-29T09:21:17;5.00;;;2.80;;
46729;SDS011;32476;50.002;11.854;2022-07-29T09:26:39;4.15;;;3.00;;
46729;SDS011;32476;50.002;11.854;2022-07-29T09:31:48;6.72;;;3.25;;
46729;SDS011;32476;50.002;11.854;2022-07-29T09:34:28;6.03;;;2.75;;
46729;SDS011;32476;50.002;11.854;2022-07-29T09:37:00;4.90;;;3.08;;
46729;SDS011;32476;50.002;11.854;2022-07-29T09:39:33;9.45;;;3.47;;
46729;SDS011;32476;50.002;11.854;2022-07-29T09:42:11;3.47;;;3.13;;
46729;SDS011;32476;50.002;11.854;2022-07-29T09:44:49;4.07;;;2.83;;
46729;SDS011;32476;50.002;11.854;2022-07-29T09:47:16;4.93;;;2.88;;
46729;SDS011;32476;50.002;11.854;2022-07-29T09:49:55;6.90;;;3.10;;
46729;SDS011;32476;50.002;11.854;2022-07-29T09:52:25;5.82;;;3.60;;
46729;SDS011;32476;50.002;11.854;2022-07-29T09:55:04;3.88;;;2.63;;
46729;SDS011;32476;50.002;11.854;2022-07-29T09:57:32;3.92;;;2.70;;
46729;SDS011;32476;50.002;11.854;2022-07-29T10:00:13;6.72;;;2.95;;
46729;SDS011;32476;50.002;11.854;2022-07-29T10:02:46;5.13;;;3.00;;
46729;SDS011;32476;50.002;11.854;2022-07-29T10:05:22;5.68;;;3.10;;
46729;SDS011;32476;50.002;11.854;2022-07-29T10:07:54;8.68;;;3.53;;
46729;SDS011;32476;50.002;11.854;2022-07-29T10:10:31;5.57;;;3.03;;
46729;SDS011;32476;50.002;11.854;2022-07-29T10:13:04;6.82;;;3.20;;
46729;SDS011;32476;50.002;11.854;2022-07-29T10:15:40;4.60;;;2.58;;
46729;SDS011;32476;50.002;11.854;2022-07-29T10:18:10;3.95;;;3.20;;
46729;SDS011;32476;50.002;11.854;2022-07-29T10:20:39;5.38;;;3.10;;
46729;SDS011;32476;50.002;11.854;2022-07-29T10:23:06;8.18;;;2.88;;
46729;SDS011;32476;50.002;11.854;2022-07-29T10:25:32;5.45;;;3.05;;
46729;SDS011;32476;50.002;11.854;2022-07-29T10:27:59;7.78;;;2.97;;
46729;SDS011;32476;50.002;11.854;2022-07-29T10:30:25;6.57;;;3.15;;
46729;SDS011;32476;50.002;11.854;2022-07-29T10:36:21;7.05;;;3.20;;
46729;SDS011;32476;50.002;11.854;2022-07-29T10:44:43;5.72;;;3.10;;
46729;SDS011;32476;50.002;11.854;2022-07-29T10:47:25;6.65;;;2.70;;
46729;SDS011;32476;50.002;11.854;2022-07-29T10:49:56;6.72;;;3.22;;
46729;SDS011;32476;50.002;11.854;2022-07-29T10:55:37;8.65;;;3.15;;
46729;SDS011;32476;50.002;11.854;2022-07-29T11:00:44;4.53;;;3.03;;
46729;SDS011;32476;50.002;11.854;2022-07-29T11:06:12;8.13;;;3.20;;
46729;SDS011;32476;50.002;11.854;2022-07-29T11:08:40;4.05;;;3.22;;
46729;SDS011;32476;50.002;11.854;2022-07-29T11:13:47;5.82;;;3.20;;
46729;SDS011;32476;50.002;11.854;2022-07-29T11:16:20;5.65;;;3.15;;
46729;SDS011;32476;50.002;11.854;2022-07-29T11:21:41;5.63;;;3.70;;
46729;SDS011;32476;50.002;11.854;2022-07-29T11:24:11;5.70;;;3.50;;
46729;SDS011;32476;50.002;11.854;2022-07-29T11:26:42;6.65;;;3.70;;
46729;SDS011;32476;50.002;11.854;2022-07-29T11:29:16;4.00;;;3.20;;
46729;SDS011;32476;50.002;11.854;2022-07-29T11:31:48;5.60;;;3.60;;
46729;SDS011;32476;50.002;11.854;2022-07-29T11:34:26;4.65;;;3.20;;
46729;SDS011;32476;50.002;11.854;2022-07-29T11:39:42;8.15;;;2.97;;
46729;SDS011;32476;50.002;11.854;2022-07-29T11:47:35;4.30;;;3.20;;
46729;SDS011;32476;50.002;11.854;2022-07-29T11:50:04;5.75;;;3.40;;
46729;SDS011;32476;50.002;11.854;2022-07-29T11:52:38;3.97;;;3.50;;
46729;SDS011;32476;50.002;11.854;2022-07-29T11:55:12;6.05;;;3.13;;
46729;SDS011;32476;50.002;11.854;2022-07-29T11:57:56;7.40;;;3.60;;
46729;SDS011;32476;50.002;11.854;2022-07-29T12:02:57;5.63;;;2.88;;
46729;SDS011;32476;50.002;11.854;2022-07-29T12:05:31;8.80;;;3.30;;
46729;SDS011;32476;50.002;11.854;2022-07-29T12:08:13;7.47;;;3.35;;
46729;SDS011;32476;50.002;11.854;2022-07-29T12:10:43;8.15;;;3.35;;
46729;SDS011;32476;50.002;11.854;2022-07-29T12:13:13;11.18;;;3.55;;
46729;SDS011;32476;50.002;11.854;2022-07-29T12:15:40;7.93;;;3.25;;
46729;SDS011;32476;50.002;11.854;2022-07-29T12:18:10;4.95;;;3.30;;
46729;SDS011;32476;50.002;11.854;2022-07-29T12:20:40;8.27;;;3.53;;
46729;SDS011;32476;50.002;11.854;2022-07-29T12:23:07;7.90;;;3.35;;
46729;SDS011;32476;50.002;11.854;2022-07-29T12:25:37;6.68;;;3.20;;
46729;SDS011;32476;50.002;11.854;2022-07-29T12:28:08;8.73;;;4.03;;
46729;SDS011;32476;50.002;11.854;2022-07-29T12:35:47;7.43;;;3.55;;
46729;SDS011;32476;50.002;11.854;2022-07-29T12:38:26;7.07;;;3.30;;
46729;SDS011;32476;50.002;11.854;2022-07-29T12:40:53;7.30;;;3.63;;
46729;SDS011;32476;50.002;11.854;2022-07-29T12:43:23;6.05;;;3.72;;
46729;SDS011;32476;50.002;11.854;2022-07-29T12:45:52;6.45;;;3.20;;
46729;SDS011;32476;50.002;11.854;2022-07-29T12:48:36;5.40;;;3.45;;
46729;SDS011;32476;50.002;11.854;2022-07-29T12:51:08;13.57;;;3.97;;
46729;SDS011;32476;50.002;11.854;2022-07-29T12:53:37;19.67;;;3.95;;
46729;SDS011;32476;50.002;11.854;2022-07-29T12:56:03;5.30;;;3.08;;
46729;SDS011;32476;50.002;11.854;2022-07-29T12:58:33;11.20;;;4.03;;
46729;SDS011;32476;50.002;11.854;2022-07-29T13:01:06;9.25;;;3.33;;
46729;SDS011;32476;50.002;11.854;2022-07-29T13:03:54;3.78;;;3.10;;
46729;SDS011;32476;50.002;11.854;2022-07-29T13:06:27;5.07;;;3.40;;
46729;SDS011;32476;50.002;11.854;2022-07-29T13:11:51;11.00;;;3.53;;
46729;SDS011;32476;50.002;11.854;2022-07-29T13:14:30;4.30;;;3.20;;
46729;SDS011;32476;50.002;11.854;2022-07-29T13:17:03;6.68;;;3.67;;
46729;SDS011;32476;50.002;11.854;2022-07-29T13:19:39;7.53;;;3.65;;
46729;SDS011;32476;50.002;11.854;2022-07-29T13:22:07;6.57;;;3.47;;
46729;SDS011;32476;50.002;11.854;2022-07-29T13:27:17;10.35;;;4.22;;
46729;SDS011;32476;50.002;11.854;2022-07-29T13:29:46;11.13;;;4.57;;
46729;SDS011;32476;50.002;11.854;2022-07-29T13:32:13;13.40;;;6.05;;
46729;SDS011;32476;50.002;11.854;2022-07-29T13:34:39;9.95;;;5.80;;
46729;SDS011;32476;50.002;11.854;2022-07-29T13:37:07;9.68;;;5.38;;
46729;SDS011;32476;50.002;11.854;2022-07-29T13:39:33;6.93;;;4.85;;
46729;SDS011;32476;50.002;11.854;2022-07-29T13:41:59;7.82;;;4.85;;
46729;SDS011;32476;50.002;11.854;2022-07-29T13:44:27;9.05;;;4.68;;
46729;SDS011;32476;50.002;11.854;2022-07-29T13:46:53;5.90;;;4.23;;
46729;SDS011;32476;50.002;11.854;2022-07-29T13:49:19;10.93;;;5.03;;
46729;SDS011;32476;50.002;11.854;2022-07-29T13:51:46;8.50;;;4.28;;
46729;SDS011;32476;50.002;11.854;2022-07-29T13:54:12;5.53;;;3.83;;
46729;SDS011;32476;50.002;11.854;2022-07-29T13:56:38;9.32;;;4.30;;
46729;SDS011;32476;50.002;11.854;2022-07-29T13:59:06;10.80;;;4.47;;
46729;SDS011;32476;50.002;11.854;2022-07-29T14:01:33;7.90;;;4.30;;
46729;SDS011;32476;50.002;11.854;2022-07-29T14:04:00;6.07;;;3.85;;
46729;SDS011;32476;50.002;11.854;2022-07-29T14:06:27;8.63;;;4.47;;
46729;SDS011;32476;50.002;11.854;2022-07-29T14:08:54;11.88;;;5.43;;
46729;SDS011;32476;50.002;11.854;2022-07-29T14:11:19;6.83;;;4.67;;
46729;SDS011;32476;50.002;11.854;2022-07-29T14:13:47;6.72;;;3.55;;
46729;SDS011;32476;50.002;11.854;2022-07-29T14:16:13;6.45;;;4.55;;
46729;SDS011;32476;50.002;11.854;2022-07-29T14:18:39;5.00;;;3.67;;
46729;SDS011;32476;50.002;11.854;2022-07-29T14:21:06;7.18;;;3.58;;
46729;SDS011;32476;50.002;11.854;2022-07-29T14:23:32;9.45;;;4.60;;
46729;SDS011;32476;50.002;11.854;2022-07-29T14:25:58;6.50;;;4.05;;
46729;SDS011;32476;50.002;11.854;2022-07-29T14:28:26;5.00;;;3.35;;
46729;SDS011;32476;50.002;11.854;2022-07-29T14:30:51;14.68;;;4.10;;
46729;SDS011;32476;50.002;11.854;2022-07-29T14:33:17;20.15;;;4.43;;
46729;SDS011;32476;50.002;11.854;2022-07-29T14:35:45;8.68;;;3.95;;
46729;SDS011;32476;50.002;11.854;2022-07-29T14:38:11;7.70;;;3.58;;
46729;SDS011;32476;50.002;11.854;2022-07-29T14:40:37;4.55;;;2.92;;
46729;SDS011;32476;50.002;11.854;2022-07-29T14:43:04;6.25;;;2.75;;
46729;SDS011;32476;50.002;11.854;2022-07-29T14:45:30;3.15;;;2.70;;
46729;SDS011;32476;50.002;11.854;2022-07-29T14:47:57;2.88;;;2.67;;
46729;SDS011;32476;50.002;11.854;2022-07-29T14:50:24;5.70;;;2.88;;
46729;SDS011;32476;50.002;11.854;2022-07-29T14:52:51;3.00;;;2.70;;
46729;SDS011;32476;50.002;11.854;2022-07-29T14:55:18;6.85;;;2.13;;
46729;SDS011;32476;50.002;11.854;2022-07-29T14:57:46;4.82;;;2.50;;
46729;SDS011;32476;50.002;11.854;2022-07-29T15:00:13;12.07;;;2.80;;
46729;SDS011;32476;50.002;11.854;2022-07-29T15:02:39;3.47;;;2.17;;
46729;SDS011;32476;50.002;11.854;2022-07-29T15:05:07;3.53;;;2.10;;
46729;SDS011;32476;50.002;11.854;2022-07-29T15:07:33;2.13;;;1.92;;
46729;SDS011;32476;50.002;11.854;2022-07-29T15:09:59;4.60;;;2.17;;
46729;SDS011;32476;50.002;11.854;2022-07-29T15:12:27;12.55;;;2.20;;
46729;SDS011;32476;50.002;11.854;2022-07-29T15:14:52;9.73;;;2.50;;
46729;SDS011;32476;50.002;11.854;2022-07-29T15:17:18;5.95;;;2.05;;
46729;SDS011;32476;50.002;11.854;2022-07-29T15:19:47;4.03;;;2.25;;
46729;SDS011;32476;50.002;11.854;2022-07-29T15:22:13;2.53;;;1.95;;
46729;SDS011;32476;50.002;11.854;2022-07-29T15:24:39;2.17;;;1.88;;
46729;SDS011;32476;50.002;11.854;2022-07-29T15:27:06;2.13;;;1.90;;
46729;SDS011;32476;50.002;11.854;2022-07-29T15:29:32;4.60;;;2.38;;
46729;SDS011;32476;50.002;11.854;2022-07-29T15:31:58;3.65;;;2.35;;
46729;SDS011;32476;50.002;11.854;2022-07-29T15:34:26;5.35;;;2.38;;
46729;SDS011;32476;50.002;11.854;2022-07-29T15:36:52;2.90;;;2.10;;
46729;SDS011;32476;50.002;11.854;2022-07-29T15:39:18;4.93;;;2.28;;
46729;SDS011;32476;50.002;11.854;2022-07-29T15:41:47;4.32;;;2.70;;
46729;SDS011;32476;50.002;11.854;2022-07-29T15:44:13;5.18;;;2.17;;
46729;SDS011;32476;50.002;11.854;2022-07-29T15:46:39;2.78;;;2.40;;
46729;SDS011;32476;50.002;11.854;2022-07-29T15:49:25;3.80;;;2.35;;
46729;SDS011;32476;50.002;11.854;2022-07-29T15:51:56;3.45;;;2.00;;
46729;SDS011;32476;50.002;11.854;2022-07-29T15:54:29;2.55;;;1.90;;